Etusivu
METAR-TAF:

METAR-TAF

Lentoasemat :

Carlsbad, New Mexico, Yhdysvallat

Leveyspiiri: 32-20-15N, Pituuspiiri: 104-15-48W, korkeus merenpinnasta: 1004 m

Tämänhetkinen sää

Tämä raportti tehtiin 42 minuuttia sitten, kello 01.53 UTC
Tuuli 9 kn lännestä/luoteesta
Lämpötila 19°C
Kosteus 46%
Ilmanpaine 1009 hPa
Näkyvyys: 16.1 km
Muutamia pilviä 12000 ft:n korkeudessa

METAR: KCNM 190153Z AUTO 29009KT 10SM FEW120 19/07 A2980 RMK AO2 SLP052 T01940072

Aika: 20:35 (02:35 UTC)

Sääennuste

Tämä raportti tehtiin 1 tunti ja 32 minuuttia sitten, kello 01.03 UTC
Ennuste voimassa 19. päivästä klo 01 UTC - 19. päivään klo 24 UTC
Tuuli 11 kn lännestä/luoteesta
Näkyvyys: 10 km
selkeää
From 19. päivästä klo 1100 UTC
Tuuli 12 kn pohjoisen/luoteesta
Näkyvyys: 10 km
selkeää
From 19. päivästä klo 1700 UTC
Tuuli 7 kn idästä
Näkyvyys: 10 km
selkeää

TAF: KCNM 190103Z 1901/1924 29011KT P6SM SKC FM191100 33012KT P6SM SKC FM191700 08007KT P6SM SKC

Säähavainnot ja -ennusteet yli 4000 lentoasemalta (METAR- ja TAF-raportit).

Käytössä olevat sääasemat on merkitty karttaan keltaisilla ja punaisilla pisteillä.

Aseta hiiri pisteen päälle nähdäksesi sääaseman nimen.

Klikkaa sitten nähdäksesi säähavainnot ja -ennusteet.

Kartan vaihtaminen: klikkaa mustalla rastilla varustettuja vihreitä pisteitä, niin voit zoomata sisään; viivalla varustettua vihreää pistettä, niin voit zoomata ulos tai vihreitä nuolia, niin pääset viereisille kartoille.


METAR-TAF: